Hastings Natural History Reservation, California Weather observations

Data are for 10 minute period ending at time listed.
 Day   Time   Solar   Ave.   Ave.  Ave.  Vector  Max.   Baro.   Total    
  of    of     Rad.   Air    Rel.  Wind   Wind   Wind  Press.  Precip.   
Year   Day            Temp.  Hum.  Speed  Dir.   Gust                    
2014   (PST)  Kw/m2    F      %     mph   deg.    mph    mb.     in.     
-------------------------------------------------------------------------
 303   10:20   0.18   69.8    30    0.5   257     2.6   951.3    0.00 
 303   10:30   0.20   70.7    29    1.4   250     3.4   951.1    0.00 
 303   10:40   0.19   71.7    28    2.4   250     6.1   950.8    0.00 
 303   10:50   0.15   72.6    28    1.2   253     3.7   950.6    0.00 
 303   11:00   0.16   72.5    27    1.6   271     4.5   950.7    0.00 
 303   11:10   0.14   72.4    27    1.0   267     3.2   950.7    0.00 
 303   11:20   0.20   72.3    28    2.4   242     6.3   950.8    0.00 
 303   11:30   0.22   72.5    28    3.3   250     7.5   950.8    0.00 
 303   11:40   0.16   73.0    27    2.3   256     5.3   950.9    0.00 
 303   11:50   0.10   73.1    27    2.2   250     6.1   950.8    0.00 
 303   12:00   0.07   72.5    28    3.2   223     6.5   950.6    0.00 
 303   12:10   0.12   72.2    28    3.0   231     7.2   950.6    0.00 
 303   12:20   0.15   72.2    28    3.2   241     7.6   950.5    0.00 
 303   12:30   0.15   72.8    28    3.2   240     5.9   950.4    0.00 
 303   12:40   0.18   72.8    28    2.5   228     6.1   950.3    0.00 
 303   12:50   0.25   74.4    26    1.6   267     3.9   950.2    0.00 
 303   13:00   0.16   74.2    26    2.5   247     5.0   950.1    0.00 
 303   13:10   0.34   74.7    26    2.4   256     6.2   949.9    0.00 
 303   13:20   0.27   75.0    26    2.7   251     7.7   949.8    0.00 
 303   13:30   0.28   74.9    27    2.9   250     7.1   949.7    0.00 
 303   13:40   0.34   75.1    29    4.0   242     7.2   949.6    0.00 
 303   13:50   0.32   75.0    30    2.8   257     6.6   949.5    0.00 
 303   14:00   0.18   74.7    31    2.4   260     7.1   949.4    0.00 
 303   14:10   0.36   74.8    34    2.4   258     9.1   949.4    0.00 
 303   14:20   0.39   74.0    36    3.5   261     8.2   949.4    0.00 
 303   14:30   0.29   74.6    34    3.0   266     7.5   949.5    0.00 
 303   14:40   0.24   73.8    35    3.0   262     7.6   949.6    0.00 
 303   14:50   0.36   73.7    36    2.9   290     6.9   949.7    0.00 
 303   15:00   0.30   74.3    35    2.1   270     6.4   949.6    0.00 
 303   15:10   0.20   73.7    36    2.8   256     7.5   949.4    0.00 
 303   15:20   0.14   72.1    37    4.6   239     7.8   949.4    0.00 
 303   15:30   0.11   70.8    40    5.4   237     8.6   949.4    0.00 
 303   15:40   0.10   70.3    38    3.5   233     7.4   949.4    0.00 
 303   15:50   0.12   70.8    38    2.1   235     4.7   949.4    0.00 
 303   16:00   0.15   71.1    39    2.6   242     5.3   949.5    0.00 
 303   16:10   0.12   71.3    39    1.7   236     3.4   949.4    0.00 
 303   16:20   0.11   71.3    37    2.1   234     3.9   949.4    0.00 
 303   16:30   0.12   71.7    36    0.9   239     3.1   949.5    0.00 
 303   16:40   0.17   72.5    34    0.4   358     1.4   949.2    0.00 
 303   16:50   0.26   73.9    32    1.0   257     2.9   949.1    0.00 
 303   17:00   0.32   75.7    29    0.8   233     2.3   948.9    0.00 
 303   17:10   0.22   76.6    22    3.0   250     8.0   949.0    0.00 
 303   17:20   0.14   73.7    37    2.3   255     6.8   949.2    0.00 
 303   17:30   0.04   70.8    42    1.7   231     5.0   949.2    0.00 
 303   17:40   0.04   69.6    45    2.2   226     5.0   949.1    0.00 
 303   17:50   0.02   68.3    47    0.7   217     2.2   948.9    0.00 
 303   18:00   0.01   66.7    49    0.7    54     2.3   948.7    0.00 
 303   18:10   0.00   65.2    50    0.7    55     2.0   948.8    0.00 
 303   18:20   0.00   64.3    45    2.2    47     3.7   948.8    0.00 
 303   18:30   0.00   63.9    43    2.3    46     3.5   948.9    0.00 
 303   18:40   0.00   63.2    44    1.6    54     2.9   949.1    0.00 
 303   18:50   0.00   62.1    46    1.6    62     2.7   949.1    0.00 
 303   19:00   0.00   61.6    46    0.9    57     2.2   949.3    0.00 
 303   19:10   0.00   61.5    49    1.5    51     2.9   949.6    0.00 
 303   19:20   0.00   62.0    52    1.6    59     3.4   949.7    0.00 
 303   19:30   0.00   61.3    53    1.3    70     2.5   949.9    0.00 
 303   19:40   0.00   60.4    53    2.4    66     3.9   950.0    0.00 
 303   19:50   0.00   59.9    50    1.6    60     2.5   950.0    0.00 
 303   20:00   0.00   58.7    51    1.1    56     2.9   950.0    0.00 
 303   20:10   0.00   57.9    49    1.7    55     3.6   950.0    0.00 
 303   20:20   0.00   58.0    50    0.7    42     1.8   949.9    0.00 
 303   20:30   0.00   58.0    51    0.4   201     1.3   949.7    0.00 
 303   20:40   0.00   57.3    54    1.7    50     2.9   949.8    0.00 
 303   20:50   0.00   57.4    56    1.6   121     2.9   949.8    0.00 
 303   21:00   0.00   57.1    57    1.3    59     2.8   950.0    0.00 
 303   21:10   0.00   56.8    56    2.0    56     3.7   950.2    0.00 
 303   21:20   0.00   57.6    56    1.8    61     3.6   950.0    0.00 
 303   21:30   0.00   57.9    56    2.8    58     6.8   949.8    0.00 
 303   21:40   0.00   58.0    56    0.8   195     3.2   949.8    0.00 
 303   21:50   0.00   56.9    57    0.1   225     0.7   949.9    0.00 
 303   22:00   0.00   54.7    56    1.8    56     3.4   950.2    0.00 
 303   22:10   0.00   53.9    58    2.1    56     2.8   950.1    0.00 
 303   22:20   0.00   53.2    62    0.4    67     2.3   950.0    0.00 
 303   22:30   0.00   53.0    62    0.0    76     1.5   950.1    0.00 
 303   22:40   0.00   52.7    64    1.6    60     3.0   950.0    0.00 
 303   22:50   0.00   52.8    65    0.8    44     2.0   949.9    0.00 
 303   23:00   0.00   52.9    77    1.6   222     4.2   950.1    0.00 
 303   23:10   0.00   52.8    89    0.7   199     2.8   950.0    0.00 
 303   23:20   0.00   52.2    92    1.0   217     2.7   949.9    0.00 
 303   23:30   0.00   50.9    90    0.8    28     2.0   950.0    0.00 
 303   23:40   0.00   50.5    90    1.0   101     2.9   949.8    0.00 
 303   23:50   0.00   49.9    90    1.4   213     2.6   949.7    0.00 
 304    0:00   0.00   50.1    92    1.1    60     2.6   949.8    0.00 
 304    0:10   0.00   49.9    92    1.0   214     4.5   949.8    0.00 
 304    0:20   0.00   50.9    96    1.9   243     4.3   950.0    0.00 
 304    0:30   0.00   51.2    98    0.9   164     4.5   950.2    0.00 
 304    0:40   0.00   51.8    98    0.5   201     1.5   950.4    0.00 
 304    0:50   0.00   52.3    98    0.4   237     1.8   950.3    0.00 
 304    1:00   0.00   52.4    98    0.1   116     0.9   950.2    0.00 
 304    1:10   0.00   52.3    97    0.6    66     2.6   950.2    0.00 
 304    1:20   0.00   52.4    97    1.2    68     3.5   950.1    0.00 
 304    1:30   0.00   52.4    96    1.1    83     3.8   949.9    0.00 
 304    1:40   0.00   52.1    96    1.1   262     2.5   950.2    0.00 
 304    1:50   0.00   51.7    96    0.3    84     1.3   950.4    0.00 
 304    2:00   0.00   51.3    96    0.4   198     1.5   950.4    0.00 
 304    2:10   0.00   50.7    96    1.0    49     2.7   950.1    0.00 
 304    2:20   0.00   50.4    96    0.4    43     1.7   949.9    0.00 
 304    2:30   0.00   50.0    96    0.6   244     2.6   949.8    0.00 
 304    2:40   0.00   49.8    96    0.8    77     1.7   949.8    0.00 
 304    2:50   0.00   49.5    96    1.2    53     2.4   949.9    0.00 
 304    3:00   0.00   49.1    96    1.6    47     2.9   949.8    0.00 
 304    3:10   0.00   49.3    96    0.2    60     1.2   949.7    0.00 
 304    3:20   0.00   49.4    95    0.8    59     2.3   949.7    0.00 
 304    3:30   0.00   49.2    95    0.7    61     2.1   949.6    0.00 
 304    3:40   0.00   49.1    95    0.1   233     0.8   949.4    0.00 
 304    3:50   0.00   48.8    95    0.7   212     2.0   949.4    0.00 
 304    4:00   0.00   49.4    96    1.1   205     3.1   949.6    0.00 
 304    4:10   0.00   49.5    96    0.6    93     1.8   949.6    0.00 
 304    4:20   0.00   49.4    96    0.4    83     2.0   949.4    0.00 
 304    4:30   0.00   49.0    96    0.3    62     1.2   949.4    0.00 
 304    4:40   0.00   48.6    95    0.1    78     1.0   949.5    0.00 
 304    4:50   0.00   48.3    95    0.0     0     0.0   949.5    0.00 
 304    5:00   0.00   48.0    95    0.6    56     1.7   949.4    0.00 
 304    5:10   0.00   47.7    96    1.0    52     1.7   949.3    0.00 
 304    5:20   0.00   47.6    96    0.7    57     1.8   949.2    0.00 
 304    5:30   0.00   47.6    96    0.1    20     1.0   949.1    0.00 
 304    5:40   0.00   47.3    96    0.8    75     2.6   949.0    0.00 
 304    5:50   0.00   47.9    98    1.5    74     3.1   948.9    0.00 
 304    6:00   0.00   49.2    98    1.7    72     3.7   948.9    0.00 
 304    6:10   0.00   49.4    97    1.4    72     2.5   948.9    0.00 
 304    6:20   0.00   49.7    97    1.8    58     3.6   949.0    0.00 
 304    6:30   0.00   50.3    97    2.0    51     4.3   948.9    0.00 
 304    6:40   0.00   50.7    96    1.7    44     4.0   948.9    0.00 
 304    6:50   0.00   51.0    96    2.0    40     4.9   948.9    0.00 
 304    7:00   0.00   50.9    96    1.3    58     2.8   949.2    0.00 
 304    7:10   0.00   50.5    97    4.0    63     7.1   949.0    0.00 
 304    7:20   0.00   51.0    95    1.9    42     6.2   948.8    0.00 
 304    7:30   0.00   50.6    94    0.8   269     2.1   949.1    0.00 
 304    7:40   0.00   49.7    95    1.4    54     2.5   949.4    0.00 
 304    7:50   0.00   48.0    94    2.6    56     4.2   949.6    0.00 
 304    8:00   0.00   47.8    96    2.9    61     4.8   949.6    0.00 
 304    8:10   0.01   49.6    96    2.5    74     5.4   949.6    0.00 
 304    8:20   0.01   49.1    95    1.8    73     4.4   949.6    0.00 
 304    8:30   0.01   48.7    95    0.5   113     1.9   949.6    0.00 
 304    8:40   0.01   49.2    95    0.5    69     1.8   949.7    0.00 
 304    8:50   0.01   49.2    95    1.0    74     2.4   949.8    0.00 
 304    9:00   0.01   49.3    96    2.0    62     3.3   949.8    0.00 
 304    9:10   0.01   50.2    97    2.1    55     3.2   949.8    0.00 
 304    9:20   0.03   51.1    96    1.6    74     2.8   949.8    0.00 
 304    9:30   0.03   51.9    96    1.6    64     2.7   949.7    0.00 
 304    9:40   0.04   53.4    92    0.5   350     1.9   949.7    0.00 
 304    9:50   0.06   55.2    81    1.1    29     2.6   949.7    0.00 
 304   10:00   0.07   57.3    73    1.0   298     3.1   949.6    0.00 
 304   10:10   0.07   59.7    66    2.9   252     6.4   949.6    0.00 

Return to Hastings Natural History Reservation graphs page.


Western Regional Climate Center,wrcc@dri.edu